createdAt,value
2023-04-19T00:01:44.234Z,10.20
2023-04-19T00:04:15.324Z,10.33
2023-04-19T00:06:43.568Z,10.19
2023-04-19T00:09:11.325Z,10.15
2023-04-19T00:11:39.412Z,10.26
2023-04-19T00:14:07.420Z,10.30
2023-04-19T00:16:35.311Z,10.32
2023-04-19T00:19:03.164Z,10.13
2023-04-19T00:21:32.429Z,10.03
2023-04-19T00:24:00.250Z,9.83
2023-04-19T00:26:28.021Z,10.21
2023-04-19T00:28:57.416Z,9.67
2023-04-19T00:31:25.326Z,9.72
2023-04-19T00:33:53.422Z,9.84
2023-04-19T00:36:21.318Z,10.03
2023-04-19T00:38:50.716Z,9.92
2023-04-19T00:41:18.763Z,10.00
2023-04-19T00:43:46.606Z,10.07
2023-04-19T00:46:16.242Z,9.88
2023-04-19T00:48:44.150Z,9.67
2023-04-19T00:51:14.025Z,9.66
2023-04-19T00:53:42.428Z,9.70
2023-04-19T00:56:12.463Z,9.73
2023-04-19T00:58:40.387Z,9.52
2023-04-19T01:01:08.275Z,9.55
2023-04-19T01:03:37.121Z,9.61
2023-04-19T01:06:05.383Z,9.71
2023-04-19T01:08:33.762Z,9.46
2023-04-19T01:11:01.688Z,9.55
2023-04-19T01:13:30.864Z,9.56
2023-04-19T01:15:58.939Z,9.32
2023-04-19T01:18:32.655Z,9.45
2023-04-19T01:21:00.696Z,9.56
2023-04-19T01:23:29.876Z,9.45
2023-04-19T01:25:57.743Z,9.38
2023-04-19T01:28:25.681Z,9.41
2023-04-19T01:30:54.246Z,9.54
2023-04-19T01:33:22.444Z,9.56
2023-04-19T01:35:50.991Z,9.38
2023-04-19T01:38:18.927Z,9.44
2023-04-19T01:40:48.225Z,9.52
2023-04-19T01:43:19.528Z,9.63
2023-04-19T01:45:47.322Z,9.64
2023-04-19T01:48:15.427Z,8.30
2023-04-19T01:50:43.277Z,9.66
2023-04-19T01:53:12.071Z,9.62
2023-04-19T01:55:39.940Z,9.24
2023-04-19T01:58:09.849Z,9.56
2023-04-19T02:00:37.676Z,9.40
2023-04-19T02:03:05.797Z,9.21
2023-04-19T02:05:33.724Z,9.36
2023-04-19T02:08:02.388Z,9.48
2023-04-19T02:10:31.817Z,9.28
2023-04-19T02:12:59.935Z,9.19
2023-04-19T02:15:30.450Z,9.03
2023-04-19T02:18:00.108Z,8.97
2023-04-19T02:20:28.080Z,8.89
2023-04-19T02:22:56.509Z,8.92
2023-04-19T02:25:24.385Z,8.87
2023-04-19T02:27:53.707Z,8.91
2023-04-19T02:30:21.854Z,8.73
2023-04-19T02:32:51.205Z,8.60
2023-04-19T02:35:19.053Z,8.55
2023-04-19T02:37:46.900Z,8.64
2023-04-19T02:40:14.883Z,8.79
2023-04-19T02:42:42.804Z,8.58
2023-04-19T02:45:11.081Z,8.66
2023-04-19T02:47:39.038Z,8.11
2023-04-19T02:50:09.628Z,8.59
2023-04-19T02:52:44.033Z,8.55
2023-04-19T02:55:11.874Z,8.51
2023-04-19T02:57:39.890Z,8.33
2023-04-19T03:00:11.675Z,7.80
2023-04-19T03:02:44.131Z,8.12
2023-04-19T03:05:13.787Z,7.88
2023-04-19T03:07:44.314Z,7.61
2023-04-19T03:10:12.630Z,7.76
2023-04-19T03:12:40.614Z,7.41
2023-04-19T03:15:09.750Z,7.68
2023-04-19T03:17:37.845Z,7.45
2023-04-19T03:20:11.000Z,7.50
2023-04-19T03:22:40.656Z,7.51
2023-04-19T03:25:12.417Z,7.62
2023-04-19T03:27:41.859Z,7.57
2023-04-19T03:30:14.175Z,7.46
2023-04-19T03:32:43.925Z,7.67
2023-04-19T03:35:13.666Z,7.43
2023-04-19T03:37:43.455Z,7.51
2023-04-19T03:40:12.022Z,7.47
2023-04-19T03:42:39.949Z,7.29
2023-04-19T03:45:13.243Z,7.45
2023-04-19T03:47:46.710Z,7.39
2023-04-19T03:50:14.636Z,7.00
2023-04-19T03:52:47.420Z,7.08
2023-04-19T03:55:16.021Z,6.90
2023-04-19T03:57:44.251Z,7.15
2023-04-19T04:00:19.901Z,7.00
2023-04-19T04:02:54.654Z,7.03
2023-04-19T04:05:23.882Z,7.19
2023-04-19T04:07:53.171Z,7.39
2023-04-19T04:10:22.058Z,7.11
2023-04-19T04:12:49.924Z,7.06
2023-04-19T04:15:24.853Z,7.18
2023-04-19T04:17:54.699Z,7.15
2023-04-19T04:20:23.022Z,7.18
2023-04-19T04:22:56.908Z,7.09
2023-04-19T04:25:25.886Z,6.77
2023-04-19T04:27:54.675Z,6.92
2023-04-19T04:30:26.610Z,6.97
2023-04-19T04:32:59.011Z,6.76
2023-04-19T04:35:29.958Z,6.39
2023-04-19T04:38:17.608Z,6.18
2023-04-19T04:40:53.637Z,6.08
2023-04-19T04:43:22.595Z,6.28
2023-04-19T04:45:50.824Z,6.43
2023-04-19T04:48:19.724Z,6.19
2023-04-19T04:50:47.591Z,6.49
2023-04-19T04:53:16.873Z,6.74
2023-04-19T04:55:46.763Z,6.92
2023-04-19T04:58:15.363Z,7.04
2023-04-19T05:01:00.244Z,7.04
2023-04-19T05:03:29.120Z,7.15
2023-04-19T05:05:59.694Z,7.01
2023-04-19T05:08:29.520Z,6.90
2023-04-19T05:11:09.447Z,7.12
2023-04-19T05:13:39.028Z,7.16
2023-04-19T05:16:07.466Z,6.81
2023-04-19T05:18:36.116Z,6.37
2023-04-19T05:21:03.999Z,6.61
2023-04-19T05:23:35.080Z,6.99
2023-04-19T05:26:03.004Z,7.28
2023-04-19T05:28:31.180Z,7.53
2023-04-19T05:31:06.378Z,6.77
2023-04-19T05:33:43.211Z,6.43
2023-04-19T05:36:11.515Z,6.53
2023-04-19T05:38:40.745Z,6.22
2023-04-19T05:41:08.803Z,6.54
2023-04-19T05:43:36.581Z,6.15
2023-04-19T05:46:06.155Z,6.39
2023-04-19T05:48:34.059Z,6.22
2023-04-19T05:51:28.304Z,6.70
2023-04-19T05:54:12.678Z,7.02
2023-04-19T05:56:42.102Z,6.53
2023-04-19T05:59:11.482Z,6.73
2023-04-19T06:01:39.430Z,6.84
2023-04-19T06:04:07.694Z,7.12
2023-04-19T06:06:38.083Z,7.29
2023-04-19T06:09:07.089Z,7.61
2023-04-19T06:11:43.107Z,8.04
2023-04-19T06:14:18.244Z,7.85
2023-04-19T06:16:46.549Z,7.79
2023-04-19T06:19:14.498Z,7.81
2023-04-19T06:21:42.452Z,7.85
2023-04-19T06:24:10.944Z,8.21
2023-04-19T06:26:40.160Z,8.07
2023-04-19T06:29:08.016Z,8.09
2023-04-19T06:31:35.973Z,7.92
2023-04-19T06:34:03.788Z,8.04
2023-04-19T06:36:31.660Z,7.90
2023-04-19T06:38:59.488Z,7.69
2023-04-19T06:41:27.379Z,7.98
2023-04-19T06:43:56.570Z,8.34
2023-04-19T06:46:24.488Z,8.60
2023-04-19T06:48:52.364Z,8.64
2023-04-19T06:51:20.225Z,8.35
2023-04-19T06:53:48.061Z,8.49
2023-04-19T06:56:15.951Z,9.05
2023-04-19T06:58:43.818Z,8.93
2023-04-19T07:01:13.155Z,8.82
2023-04-19T07:03:41.814Z,8.63
2023-04-19T07:06:09.877Z,8.67
2023-04-19T07:08:49.192Z,9.16
2023-04-19T07:11:20.219Z,9.62
2023-04-19T07:13:49.067Z,9.79
2023-04-19T07:16:18.366Z,9.57
2023-04-19T07:18:46.359Z,9.64
2023-04-19T07:21:14.278Z,10.03
2023-04-19T07:23:42.304Z,9.20
2023-04-19T07:26:10.285Z,9.01
2023-04-19T07:28:40.576Z,9.53
2023-04-19T07:31:08.492Z,9.68
2023-04-19T07:33:37.726Z,9.60
2023-04-19T07:36:06.663Z,8.98
2023-04-19T07:38:34.499Z,9.18
2023-04-19T07:41:02.337Z,9.13
2023-04-19T07:43:31.123Z,9.46
2023-04-19T07:45:58.907Z,9.28
2023-04-19T07:48:26.843Z,8.18
2023-04-19T07:50:56.223Z,9.37
2023-04-19T07:53:24.062Z,9.36
2023-04-19T07:55:51.816Z,9.51
2023-04-19T07:58:19.712Z,9.37
2023-04-19T08:00:47.551Z,9.93
2023-04-19T08:03:15.582Z,10.02
2023-04-19T08:05:43.592Z,10.20
2023-04-19T08:08:12.841Z,10.01
2023-04-19T08:10:40.624Z,10.20
2023-04-19T08:13:08.814Z,10.65
2023-04-19T08:16:20.354Z,10.41
2023-04-19T08:18:25.589Z,10.83
2023-04-19T08:20:53.859Z,10.43
2023-04-19T08:23:29.501Z,10.55
2023-04-19T08:26:02.692Z,10.68
2023-04-19T08:28:30.656Z,10.23
2023-04-19T08:30:59.990Z,10.60
2023-04-19T08:33:29.455Z,10.62
2023-04-19T08:35:57.316Z,10.68
2023-04-19T08:38:26.600Z,10.62
2023-04-19T08:40:55.979Z,10.88
2023-04-19T08:43:28.689Z,10.85
2023-04-19T08:45:58.258Z,10.74
2023-04-19T08:48:28.471Z,11.08
2023-04-19T08:51:05.031Z,10.82
2023-04-19T08:53:36.625Z,10.68
2023-04-19T09:01:07.227Z,11.06
2023-04-19T09:03:47.252Z,10.98
2023-04-19T09:06:19.411Z,10.89
2023-04-19T09:08:48.773Z,10.59
2023-04-19T09:11:16.877Z,10.78
2023-04-19T09:13:45.029Z,11.13
2023-04-19T09:16:26.074Z,10.45
2023-04-19T09:19:08.613Z,10.71
2023-04-19T09:21:47.515Z,10.64
2023-04-19T09:24:16.649Z,11.18
2023-04-19T09:26:55.386Z,11.02
2023-04-19T09:29:24.262Z,11.37
2023-04-19T09:31:59.969Z,10.91
2023-04-19T09:34:30.558Z,10.74
2023-04-19T09:37:11.040Z,11.03
2023-04-19T09:39:44.339Z,10.88
2023-04-19T09:42:12.132Z,11.38
2023-04-19T09:47:24.265Z,11.36
2023-04-19T09:50:21.922Z,10.76
2023-04-19T09:52:53.281Z,11.50
2023-04-19T09:55:27.767Z,11.60
2023-04-19T09:57:56.494Z,9.97
2023-04-19T10:00:24.733Z,11.12
2023-04-19T10:02:57.969Z,11.67
2023-04-19T10:05:26.824Z,11.62
2023-04-19T10:08:00.117Z,11.49
2023-04-19T10:13:18.146Z,11.36
2023-04-19T10:15:53.653Z,11.49
2023-04-19T10:18:24.128Z,11.82
2023-04-19T10:20:56.404Z,12.28
2023-04-19T10:23:24.574Z,12.13
2023-04-19T10:25:57.438Z,12.00
2023-04-19T10:28:25.691Z,11.88
2023-04-19T10:30:54.714Z,12.05
2023-04-19T10:33:27.172Z,11.46
2023-04-19T10:35:57.291Z,11.88
2023-04-19T10:38:38.708Z,11.49
2023-04-19T10:41:17.076Z,11.81
2023-04-19T10:43:47.043Z,11.53
2023-04-19T10:46:17.736Z,11.63
2023-04-19T10:48:56.154Z,11.35
2023-04-19T10:51:27.832Z,11.86
2023-04-19T10:53:58.397Z,11.57
2023-04-19T10:57:00.436Z,11.94
2023-04-19T10:59:31.593Z,11.84
2023-04-19T11:02:01.744Z,11.77
2023-04-19T11:05:02.473Z,12.08
2023-04-19T11:07:37.270Z,12.08
2023-04-19T11:10:06.674Z,12.23
2023-04-19T11:12:36.071Z,12.51
2023-04-19T11:15:03.945Z,12.59
2023-04-19T11:17:32.848Z,12.56
2023-04-19T11:20:02.185Z,12.22
2023-04-19T11:22:33.900Z,12.34
2023-04-19T11:25:09.967Z,12.31
2023-04-19T11:27:39.940Z,12.63
2023-04-19T11:30:10.533Z,12.49
2023-04-19T11:32:39.039Z,12.71
2023-04-19T11:35:08.938Z,12.65
2023-04-19T11:37:38.059Z,12.62
2023-04-19T11:40:07.822Z,12.62
2023-04-19T11:42:35.865Z,13.04
2023-04-19T11:45:09.056Z,13.03
2023-04-19T11:47:49.035Z,12.83
2023-04-19T11:50:33.243Z,12.55
2023-04-19T11:53:01.631Z,12.87
2023-04-19T11:55:34.668Z,12.96
2023-04-19T11:58:02.533Z,12.74
2023-04-19T12:00:31.747Z,12.56
2023-04-19T12:03:01.754Z,12.75
2023-04-19T12:05:30.146Z,13.15
2023-04-19T12:08:02.241Z,13.01
2023-04-19T12:10:30.858Z,12.95
2023-04-19T12:12:58.843Z,13.19
2023-04-19T12:15:46.295Z,13.35
2023-04-19T12:18:14.211Z,12.71
2023-04-19T12:20:46.346Z,13.15
2023-04-19T12:23:15.773Z,13.48
2023-04-19T12:25:44.770Z,13.61
2023-04-19T12:28:12.649Z,13.50
2023-04-19T12:30:41.141Z,13.74
2023-04-19T12:33:10.642Z,13.69
2023-04-19T12:35:39.122Z,13.32
2023-04-19T12:38:06.957Z,13.43
2023-04-19T12:40:35.136Z,13.59
2023-04-19T12:43:02.994Z,13.64
2023-04-19T12:45:30.920Z,13.69
2023-04-19T12:47:58.694Z,13.57
2023-04-19T12:50:27.953Z,13.78
2023-04-19T12:52:55.879Z,13.61
2023-04-19T12:55:24.004Z,13.24
2023-04-19T12:57:51.887Z,13.82
2023-04-19T13:00:19.660Z,13.86
2023-04-19T13:02:48.353Z,13.96
2023-04-19T13:05:16.496Z,13.87
2023-04-19T13:07:45.687Z,13.78
2023-04-19T13:10:13.569Z,13.89
2023-04-19T13:12:41.479Z,13.71
2023-04-19T13:15:10.765Z,13.26
2023-04-19T13:17:38.700Z,13.43
2023-04-19T13:20:07.930Z,13.67
2023-04-19T13:22:35.792Z,13.67
2023-04-19T13:25:05.179Z,13.53
2023-04-19T13:27:33.005Z,13.51
2023-04-19T13:30:00.933Z,13.15
2023-04-19T13:32:28.753Z,13.51
2023-04-19T13:34:56.528Z,13.62
2023-04-19T13:37:24.387Z,14.22
2023-04-19T13:39:52.451Z,14.41
2023-04-19T13:42:23.263Z,14.70
2023-04-19T13:44:51.362Z,14.59
2023-04-19T13:47:19.105Z,13.92
2023-04-19T13:49:51.978Z,13.93
2023-04-19T13:52:19.820Z,14.06
2023-04-19T13:54:47.598Z,14.12
2023-04-19T13:57:15.548Z,14.32
2023-04-19T13:59:44.670Z,14.79
2023-04-19T14:02:12.778Z,14.85
2023-04-19T14:04:40.641Z,14.56
2023-04-19T14:07:08.428Z,13.81
2023-04-19T14:09:36.706Z,14.12
2023-04-19T14:12:05.195Z,13.63
2023-04-19T14:14:33.175Z,13.90
2023-04-19T14:17:02.349Z,14.23
2023-04-19T14:19:30.111Z,14.25
2023-04-19T14:21:58.126Z,14.13
2023-04-19T14:24:26.066Z,14.60
2023-04-19T14:27:09.130Z,14.34
2023-04-19T14:29:38.586Z,13.79
2023-04-19T14:32:24.181Z,13.91
2023-04-19T14:34:54.535Z,13.98
2023-04-19T14:37:24.217Z,13.50
2023-04-19T14:39:52.292Z,13.28
2023-04-19T14:42:22.557Z,13.17
2023-04-19T14:44:51.999Z,13.33
2023-04-19T14:47:22.015Z,13.25
2023-04-19T14:49:49.932Z,12.97
2023-04-19T14:52:18.234Z,13.04
2023-04-19T14:54:46.114Z,13.26
2023-04-19T14:57:14.349Z,13.32
2023-04-19T14:59:42.236Z,13.44
2023-04-19T15:02:10.910Z,13.30
2023-04-19T15:04:41.216Z,13.03
2023-04-19T15:07:09.670Z,13.01
2023-04-19T15:09:37.439Z,12.94
2023-04-19T15:12:05.827Z,12.58
2023-04-19T15:14:33.615Z,12.62
2023-04-19T15:17:01.908Z,12.95
2023-04-19T15:19:30.926Z,13.07
2023-04-19T15:22:00.074Z,13.70
2023-04-19T15:24:27.798Z,13.61
2023-04-19T15:26:56.470Z,13.22
2023-04-19T15:29:24.289Z,13.01
2023-04-19T15:31:52.164Z,12.68
2023-04-19T15:34:20.201Z,12.69
2023-04-19T15:36:47.932Z,12.78
2023-04-19T15:39:17.258Z,13.39
2023-04-19T15:41:45.217Z,13.48
2023-04-19T15:44:12.996Z,13.74
2023-04-19T15:46:41.349Z,13.27
2023-04-19T15:49:09.241Z,13.41
2023-04-19T15:51:38.249Z,13.35
2023-04-19T15:54:06.283Z,13.28
2023-04-19T15:56:35.479Z,13.45
2023-04-19T15:59:03.260Z,13.34
2023-04-19T16:01:31.218Z,12.86
2023-04-19T16:03:59.244Z,13.33
2023-04-19T16:06:27.335Z,13.08
2023-04-19T16:08:55.173Z,12.83
2023-04-19T16:11:23.091Z,12.96
2023-04-19T16:13:52.366Z,12.84
2023-04-19T16:16:20.251Z,12.57
2023-04-19T16:18:48.160Z,12.40
2023-04-19T16:21:15.961Z,12.31
2023-04-19T16:23:43.771Z,12.69
2023-04-19T16:26:11.567Z,12.64
2023-04-19T16:28:39.349Z,12.52
2023-04-19T16:31:08.534Z,12.55
2023-04-19T16:33:36.375Z,12.98
2023-04-19T16:36:04.397Z,12.62
2023-04-19T16:38:32.230Z,12.89
2023-04-19T16:41:02.030Z,13.27
2023-04-19T16:43:29.969Z,13.05
2023-04-19T16:45:57.877Z,12.77
2023-04-19T16:48:27.571Z,12.68
2023-04-19T16:50:55.420Z,12.75
2023-04-19T16:53:23.304Z,12.96
2023-04-19T16:55:51.069Z,12.65
2023-04-19T16:58:18.840Z,12.67
2023-04-19T17:00:46.699Z,12.44
2023-04-19T17:03:14.935Z,12.12
2023-04-19T17:05:44.197Z,12.24
2023-04-19T17:08:12.162Z,12.13
2023-04-19T17:10:39.978Z,11.39
2023-04-19T17:13:07.826Z,12.26
2023-04-19T17:15:35.757Z,12.35
2023-04-19T17:18:04.011Z,12.12
2023-04-19T17:20:31.864Z,11.78
2023-04-19T17:23:01.055Z,12.31
2023-04-19T17:25:28.986Z,12.44
2023-04-19T17:27:56.745Z,12.60
2023-04-19T17:30:24.560Z,12.40
2023-04-19T17:32:52.651Z,12.54
2023-04-19T17:35:20.498Z,12.41
2023-04-19T17:37:48.397Z,12.01
2023-04-19T17:40:17.537Z,12.11
2023-04-19T17:42:45.519Z,12.10
2023-04-19T17:45:13.375Z,12.22
2023-04-19T17:47:41.829Z,12.24
2023-04-19T17:50:12.057Z,12.07
2023-04-19T17:52:40.442Z,12.06
2023-04-19T17:55:08.894Z,11.78
2023-04-19T17:57:38.152Z,11.91
2023-04-19T18:00:10.906Z,11.98
2023-04-19T18:02:38.894Z,11.88
2023-04-19T18:05:07.421Z,11.80
2023-04-19T18:07:36.754Z,11.89
2023-04-19T18:10:05.345Z,11.90
2023-04-19T18:12:33.145Z,12.08
2023-04-19T18:15:02.448Z,12.16
2023-04-19T18:17:31.261Z,12.15
2023-04-19T18:19:59.098Z,12.08
2023-04-19T18:22:26.921Z,12.01
2023-04-19T18:24:54.710Z,12.04
2023-04-19T18:27:22.500Z,11.92
2023-04-19T18:29:52.077Z,12.03
2023-04-19T18:32:21.883Z,12.08
2023-04-19T18:34:49.830Z,12.02
2023-04-19T18:37:18.120Z,11.86
2023-04-19T18:39:46.042Z,11.86
2023-04-19T18:42:13.813Z,11.89
2023-04-19T18:47:12.368Z,11.83
2023-04-19T18:49:45.760Z,11.60
2023-04-19T18:52:20.795Z,11.73
2023-04-19T18:54:48.621Z,11.59
2023-04-19T18:59:47.129Z,11.48
2023-04-19T19:02:15.003Z,11.46
2023-04-19T19:07:34.368Z,11.37
2023-04-19T19:10:15.990Z,11.23
2023-04-19T19:12:46.080Z,11.29
2023-04-19T19:15:14.734Z,10.88
2023-04-19T19:17:43.116Z,11.34
2023-04-19T19:20:13.094Z,11.27
2023-04-19T19:22:40.959Z,11.33
2023-04-19T19:25:09.486Z,10.99
2023-04-19T19:27:37.763Z,11.01
2023-04-19T19:30:07.734Z,11.15
2023-04-19T19:32:36.142Z,11.13
2023-04-19T19:35:08.138Z,10.93
2023-04-19T19:37:38.466Z,11.13
2023-04-19T19:40:10.796Z,10.93
2023-04-19T19:42:40.561Z,10.89
2023-04-19T19:45:09.823Z,10.98
2023-04-19T19:47:43.429Z,10.92
2023-04-19T19:51:01.110Z,10.97
2023-04-19T19:53:03.465Z,10.94
2023-04-19T19:55:31.279Z,10.77
2023-04-19T20:00:44.122Z,10.28
2023-04-19T20:03:14.447Z,10.14
2023-04-19T20:05:42.645Z,10.26
2023-04-19T20:08:13.649Z,10.23
2023-04-19T20:10:43.399Z,10.12
2023-04-19T20:13:12.870Z,10.40
2023-04-19T20:15:41.206Z,10.21
2023-04-19T20:18:09.229Z,10.34
2023-04-19T20:20:37.567Z,10.47
2023-04-19T20:23:05.882Z,10.39
2023-04-19T20:25:35.144Z,10.52
2023-04-19T20:28:04.709Z,10.41
2023-04-19T20:30:32.580Z,10.29
2023-04-19T20:33:01.195Z,9.90
2023-04-19T20:35:29.363Z,9.73
2023-04-19T20:38:02.320Z,9.73
2023-04-19T20:40:32.038Z,9.62
2023-04-19T20:43:01.603Z,9.46
2023-04-19T20:45:29.890Z,9.35
2023-04-19T20:47:58.467Z,9.63
2023-04-19T20:50:26.626Z,9.72
2023-04-19T20:52:54.405Z,9.73
2023-04-19T20:55:22.268Z,9.57
2023-04-19T20:57:50.078Z,9.93
2023-04-19T21:00:20.298Z,10.01
2023-04-19T21:02:49.468Z,9.99
2023-04-19T21:05:17.453Z,9.88
2023-04-19T21:07:45.208Z,9.63
2023-04-19T21:10:13.738Z,9.65
2023-04-19T21:12:41.515Z,9.48
2023-04-19T21:15:09.919Z,9.70
2023-04-19T21:17:39.113Z,9.66
2023-04-19T21:20:12.223Z,8.87
2023-04-19T21:22:40.188Z,8.29
2023-04-19T21:25:09.127Z,7.98
2023-04-19T21:27:37.574Z,7.67
2023-04-19T21:30:06.074Z,8.01
2023-04-19T21:32:34.338Z,8.12
2023-04-19T21:35:04.342Z,8.07
2023-04-19T21:37:32.125Z,8.01
2023-04-19T21:39:59.967Z,8.23
2023-04-19T21:42:27.698Z,8.15
2023-04-19T21:44:55.523Z,8.37
2023-04-19T21:47:23.286Z,8.30
2023-04-19T21:49:51.299Z,8.36
2023-04-19T21:52:20.586Z,8.33
2023-04-19T21:54:48.773Z,8.26
2023-04-19T21:57:17.617Z,8.22
2023-04-19T21:59:45.386Z,8.49
2023-04-19T22:02:13.220Z,8.43
2023-04-19T22:04:41.681Z,8.70
2023-04-19T22:07:11.348Z,8.35
2023-04-19T22:09:40.601Z,8.40
2023-04-19T22:12:09.296Z,8.31
2023-04-19T22:14:37.370Z,8.47
2023-04-19T22:17:06.402Z,7.58
2023-04-19T22:19:34.167Z,8.38
2023-04-19T22:22:02.051Z,8.65
2023-04-19T22:24:29.875Z,8.86
2023-04-19T22:26:59.007Z,8.67
2023-04-19T22:29:26.756Z,8.69
2023-04-19T22:31:54.632Z,8.68
2023-04-19T22:34:22.767Z,8.63
2023-04-19T22:36:50.751Z,8.55
2023-04-19T22:39:18.771Z,8.60
2023-04-19T22:41:46.644Z,8.46
2023-04-19T22:44:15.823Z,8.77
2023-04-19T22:46:43.812Z,8.75
2023-04-19T22:49:11.626Z,8.79
2023-04-19T22:51:39.490Z,7.98
2023-04-19T22:54:07.234Z,8.79
2023-04-19T22:56:35.053Z,8.97
2023-04-19T22:59:02.834Z,8.85
2023-04-19T23:01:32.069Z,8.77
2023-04-19T23:03:59.876Z,8.74
2023-04-19T23:06:28.859Z,8.57
2023-04-19T23:08:56.697Z,8.82
2023-04-19T23:11:25.085Z,8.49
2023-04-19T23:13:54.032Z,8.72
2023-04-19T23:16:24.122Z,8.90
2023-04-19T23:18:54.386Z,8.99
2023-04-19T23:21:22.233Z,8.72
2023-04-19T23:23:51.318Z,8.81
2023-04-19T23:26:19.164Z,8.70
2023-04-19T23:28:46.927Z,8.78
2023-04-19T23:31:15.077Z,8.72
2023-04-19T23:33:42.984Z,8.68
2023-04-19T23:36:12.201Z,8.22
2023-04-19T23:38:39.972Z,7.78
2023-04-19T23:41:10.801Z,8.45
2023-04-19T23:43:38.781Z,8.08
2023-04-19T23:46:07.492Z,8.48
2023-04-19T23:48:35.885Z,8.08
2023-04-19T23:51:03.632Z,8.02
2023-04-19T23:53:32.710Z,7.98
2023-04-19T23:56:00.525Z,7.77
2023-04-19T23:58:28.291Z,7.94
